Time,TemperatureF,DewpointF,PressureIn,WindDirection,WindDirectionDegrees,WindSpeedMPH,WindSpeedGustMPH,Humidity,HourlyPrecipIn,Conditions,Clouds,dailyrainin,SoftwareType,DateUTC
2013-03-15 00:11:00,41.1,26.0,30.10,WSW,245,1.0,1.0,56,0.00,,,0.00,weatherlink.com 1.10,2013-03-15 06:11:00,
2013-03-15 00:26:00,43.1,26.0,30.10,SW,232,2.0,2.0,52,0.00,,,0.00,weatherlink.com 1.10,2013-03-15 06:26:00,
2013-03-15 00:41:00,40.9,27.0,30.09,WSW,243,1.0,2.0,57,0.00,,,0.00,weatherlink.com 1.10,2013-03-15 06:41:00,
2013-03-15 00:56:00,40.7,27.0,30.10,SW,236,0.0,1.0,58,0.00,,,0.00,weatherlink.com 1.10,2013-03-15 06:56:00,
2013-03-15 01:11:00,40.1,27.0,30.09,ESE,108,0.0,1.0,60,0.00,,,0.00,weatherlink.com 1.10,2013-03-15 07:11:00,
2013-03-15 01:26:00,40.5,27.0,30.09,East,94,0.0,1.0,58,0.00,,,0.00,weatherlink.com 1.10,2013-03-15 07:26:00,
2013-03-15 01:41:00,38.5,28.0,30.08,East,91,0.0,3.0,65,0.00,,,0.00,weatherlink.com 1.10,2013-03-15 07:41:00,
2013-03-15 01:56:00,39.1,27.0,30.09,SSE,157,0.0,1.0,61,0.00,,,0.00,weatherlink.com 1.10,2013-03-15 07:56:00,
2013-03-15 02:11:00,38.8,26.0,30.09,WSW,240,0.0,2.0,61,0.00,,,0.00,weatherlink.com 1.10,2013-03-15 08:11:00,
2013-03-15 02:26:00,38.7,27.0,30.09,East,101,0.0,0.0,63,0.00,,,0.00,weatherlink.com 1.10,2013-03-15 08:26:00,
2013-03-15 02:41:00,39.2,26.0,30.09,SW,232,1.0,1.0,60,0.00,,,0.00,weatherlink.com 1.10,2013-03-15 08:41:00,
2013-03-15 02:56:00,40.3,26.0,30.08,SW,232,0.0,0.0,56,0.00,,,0.00,weatherlink.com 1.10,2013-03-15 08:56:00,
2013-03-15 03:11:00,40.0,26.0,30.08,ENE,71,0.0,2.0,57,0.00,,,0.00,weatherlink.com 1.10,2013-03-15 09:11:00,
2013-03-15 03:26:00,40.1,26.0,30.08,WSW,243,0.0,0.0,57,0.00,,,0.00,weatherlink.com 1.10,2013-03-15 09:26:00,
2013-03-15 03:41:00,38.0,27.0,30.08,SW,229,1.0,3.0,66,0.00,,,0.00,weatherlink.com 1.10,2013-03-15 09:41:00,
2013-03-15 03:56:00,38.1,27.0,30.09,ESE,103,0.0,0.0,65,0.00,,,0.00,weatherlink.com 1.10,2013-03-15 09:56:00,
2013-03-15 04:11:00,37.4,28.0,30.09,East,82,0.0,2.0,69,0.00,,,0.00,weatherlink.com 1.10,2013-03-15 10:11:00,
2013-03-15 04:26:00,37.5,27.0,30.08,SW,232,2.0,2.0,66,0.00,,,0.00,weatherlink.com 1.10,2013-03-15 10:26:00,
2013-03-15 04:41:00,37.6,27.0,30.07,WSW,246,0.0,4.0,67,0.00,,,0.00,weatherlink.com 1.10,2013-03-15 10:41:00,
2013-03-15 04:56:00,37.6,27.0,30.07,East,79,1.0,2.0,67,0.00,,,0.00,weatherlink.com 1.10,2013-03-15 10:56:00,
2013-03-15 05:11:00,37.7,27.0,30.07,ENE,63,0.0,1.0,65,0.00,,,0.00,weatherlink.com 1.10,2013-03-15 11:11:00,
2013-03-15 05:26:00,39.1,27.0,30.07,NE,41,0.0,2.0,63,0.00,,,0.00,weatherlink.com 1.10,2013-03-15 11:26:00,
2013-03-15 05:41:00,39.7,27.0,30.07,ENE,68,0.0,0.0,62,0.00,,,0.00,weatherlink.com 1.10,2013-03-15 11:41:00,
2013-03-15 06:12:00,36.3,28.0,30.08,WSW,238,0.0,2.0,72,0.00,,,0.00,weatherlink.com 1.10,2013-03-15 12:12:00,
2013-03-15 06:26:00,35.2,28.0,30.08,East,91,1.0,1.0,75,0.00,,,0.00,weatherlink.com 1.10,2013-03-15 12:26:00,
2013-03-15 06:41:00,34.7,28.0,30.08,East,92,1.0,1.0,76,0.00,,,0.00,weatherlink.com 1.10,2013-03-15 12:41:00,
2013-03-15 06:56:00,35.6,28.0,30.08,ESE,115,0.0,1.0,74,0.00,,,0.00,weatherlink.com 1.10,2013-03-15 12:56:00,
2013-03-15 07:12:00,35.6,27.0,30.09,SSE,147,0.0,0.0,72,0.00,,,0.00,weatherlink.com 1.10,2013-03-15 13:12:00,
2013-03-15 07:27:00,34.5,27.0,30.09,SW,235,1.0,2.0,75,0.00,,,0.00,weatherlink.com 1.10,2013-03-15 13:27:00,
2013-03-15 07:42:00,33.8,27.0,30.09,SE,131,0.0,1.0,77,0.00,,,0.00,weatherlink.com 1.10,2013-03-15 13:42:00,
2013-03-15 07:57:00,33.9,27.0,30.08,SW,229,1.0,1.0,77,0.00,,,0.00,weatherlink.com 1.10,2013-03-15 13:57:00,
2013-03-15 08:12:00,33.0,27.0,30.09,SW,236,0.0,1.0,78,0.00,,,0.00,weatherlink.com 1.10,2013-03-15 14:12:00,
2013-03-15 08:42:00,32.8,28.0,30.08,SW,225,0.0,1.0,81,0.00,,,0.00,weatherlink.com 1.10,2013-03-15 14:42:00,
2013-03-15 08:57:00,34.5,28.0,30.09,East,96,1.0,2.0,77,0.00,,,0.00,weatherlink.com 1.10,2013-03-15 14:57:00,
2013-03-15 09:27:00,39.3,30.0,30.09,WSW,248,0.0,0.0,70,0.00,,,0.00,weatherlink.com 1.10,2013-03-15 15:27:00,
2013-03-15 09:42:00,39.2,29.0,30.09,East,98,0.0,2.0,68,0.00,,,0.00,weatherlink.com 1.10,2013-03-15 15:42:00,
2013-03-15 09:57:00,38.7,30.0,30.09,WSW,252,0.0,2.0,71,0.00,,,0.00,weatherlink.com 1.10,2013-03-15 15:57:00,
2013-03-15 10:12:00,38.5,29.0,30.09,ENE,77,1.0,1.0,70,0.00,,,0.00,weatherlink.com 1.10,2013-03-15 16:12:00,
2013-03-15 10:27:00,40.5,30.0,30.09,East,101,2.0,2.0,66,0.00,,,0.00,weatherlink.com 1.10,2013-03-15 16:27:00,
2013-03-15 10:42:00,41.9,31.0,30.09,East,98,1.0,1.0,65,0.00,,,0.00,weatherlink.com 1.10,2013-03-15 16:42:00,
2013-03-15 10:57:00,42.6,31.0,30.09,East,98,1.0,2.0,64,0.00,,,0.00,weatherlink.com 1.10,2013-03-15 16:57:00,
2013-03-15 11:12:00,44.3,31.0,30.08,East,89,1.0,1.0,59,0.00,,,0.00,weatherlink.com 1.10,2013-03-15 17:12:00,
2013-03-15 11:27:00,48.0,32.0,30.08,SW,224,3.0,4.0,54,0.00,,,0.00,weatherlink.com 1.10,2013-03-15 17:27:00,
2013-03-15 11:42:00,50.9,33.0,30.07,SW,231,1.0,3.0,50,0.00,,,0.00,weatherlink.com 1.10,2013-03-15 17:42:00,
2013-03-15 11:57:00,52.0,33.0,30.07,East,92,1.0,3.0,48,0.00,,,0.00,weatherlink.com 1.10,2013-03-15 17:57:00,
2013-03-15 12:12:00,49.3,33.0,30.07,ESE,122,1.0,3.0,53,0.00,,,0.00,weatherlink.com 1.10,2013-03-15 18:12:00,
2013-03-15 12:43:00,52.6,33.0,30.06,SSE,165,0.0,3.0,47,0.00,,,0.00,weatherlink.com 1.10,2013-03-15 18:43:00,
2013-03-15 12:58:00,51.6,32.0,30.06,SW,221,2.0,3.0,48,0.00,,,0.00,weatherlink.com 1.10,2013-03-15 18:58:00,
2013-03-15 13:13:00,51.0,32.0,30.05,WSW,246,3.0,4.0,49,0.00,,,0.00,weatherlink.com 1.10,2013-03-15 19:13:00,
2013-03-15 13:28:00,50.7,31.0,30.05,SW,236,2.0,5.0,48,0.00,,,0.00,weatherlink.com 1.10,2013-03-15 19:28:00,
2013-03-15 13:43:00,51.0,31.0,30.05,West,259,0.0,5.0,46,0.00,,,0.00,weatherlink.com 1.10,2013-03-15 19:43:00,
2013-03-15 13:58:00,50.8,30.0,30.04,SW,229,1.0,2.0,45,0.00,,,0.00,weatherlink.com 1.10,2013-03-15 19:58:00,
2013-03-15 14:13:00,50.8,30.0,30.03,WSW,248,1.0,3.0,45,0.00,,,0.00,weatherlink.com 1.10,2013-03-15 20:13:00,
2013-03-15 14:28:00,51.0,30.0,30.03,WSW,255,1.0,3.0,45,0.00,,,0.00,weatherlink.com 1.10,2013-03-15 20:28:00,
2013-03-15 14:43:00,51.6,30.0,30.02,SW,233,1.0,3.0,44,0.00,,,0.00,weatherlink.com 1.10,2013-03-15 20:43:00,
2013-03-15 14:58:00,51.4,30.0,30.02,West,266,2.0,3.0,44,0.00,,,0.00,weatherlink.com 1.10,2013-03-15 20:58:00,
2013-03-15 15:14:00,51.4,31.0,30.01,WSW,241,4.0,5.0,45,0.00,,,0.00,weatherlink.com 1.10,2013-03-15 21:14:00,
2013-03-15 15:28:00,51.3,30.0,30.01,SW,219,3.0,4.0,45,0.00,,,0.00,weatherlink.com 1.10,2013-03-15 21:28:00,
2013-03-15 15:43:00,51.7,30.0,30.00,SW,232,0.0,5.0,44,0.00,,,0.00,weatherlink.com 1.10,2013-03-15 21:43:00,
2013-03-15 15:58:00,51.7,31.0,30.00,WSW,253,1.0,5.0,45,0.00,,,0.00,weatherlink.com 1.10,2013-03-15 21:58:00,
2013-03-15 16:13:00,51.6,31.0,30.00,SW,233,2.0,7.0,45,0.00,,,0.00,weatherlink.com 1.10,2013-03-15 22:13:00,
2013-03-15 16:28:00,51.6,31.0,30.00,WSW,242,3.0,5.0,45,0.00,,,0.00,weatherlink.com 1.10,2013-03-15 22:28:00,
2013-03-15 16:43:00,50.2,29.0,30.00,WSW,245,0.0,3.0,45,0.00,,,0.00,weatherlink.com 1.10,2013-03-15 22:43:00,
2013-03-15 16:58:00,49.8,29.0,30.00,WSW,246,2.0,3.0,45,0.00,,,0.00,weatherlink.com 1.10,2013-03-15 22:58:00,
2013-03-15 17:13:00,49.7,29.0,30.00,WSW,242,3.0,3.0,45,0.00,,,0.00,weatherlink.com 1.10,2013-03-15 23:13:00,
2013-03-15 17:28:00,48.7,28.0,29.99,WSW,245,3.0,3.0,45,0.00,,,0.00,weatherlink.com 1.10,2013-03-15 23:28:00,
2013-03-15 17:43:00,48.3,29.0,29.99,WSW,244,0.0,2.0,48,0.00,,,0.00,weatherlink.com 1.10,2013-03-15 23:43:00,
2013-03-15 17:58:00,47.7,29.0,29.99,SW,236,0.0,2.0,48,0.00,,,0.00,weatherlink.com 1.10,2013-03-15 23:58:00,
2013-03-15 18:13:00,47.0,29.0,29.99,SW,232,0.0,2.0,50,0.00,,,0.00,weatherlink.com 1.10,2013-03-16 00:13:00,
2013-03-15 18:28:00,45.7,30.0,29.99,WSW,252,0.0,2.0,55,0.00,,,0.00,weatherlink.com 1.10,2013-03-16 00:28:00,
2013-03-15 18:43:00,44.5,30.0,29.99,WSW,239,1.0,1.0,57,0.00,,,0.00,weatherlink.com 1.10,2013-03-16 00:43:00,
2013-03-15 18:58:00,44.0,28.0,29.99,West,273,0.0,1.0,54,0.00,,,0.00,weatherlink.com 1.10,2013-03-16 00:58:00,
2013-03-15 19:13:00,43.3,27.0,29.99,WSW,239,0.0,1.0,53,0.00,,,0.00,weatherlink.com 1.10,2013-03-16 01:13:00,
2013-03-15 19:28:00,42.6,27.0,29.99,NE,43,0.0,1.0,55,0.00,,,0.00,weatherlink.com 1.10,2013-03-16 01:28:00,
2013-03-15 19:43:00,42.2,27.0,29.99,NE,53,0.0,1.0,55,0.00,,,0.00,weatherlink.com 1.10,2013-03-16 01:43:00,
2013-03-15 19:59:00,41.8,27.0,29.99,NE,49,0.0,0.0,56,0.00,,,0.00,weatherlink.com 1.10,2013-03-16 01:59:00,
2013-03-15 20:13:00,42.3,27.0,30.00,West,281,0.0,1.0,54,0.00,,,0.00,weatherlink.com 1.10,2013-03-16 02:13:00,
2013-03-15 20:28:00,41.2,26.0,30.00,NNE,20,0.0,1.0,56,0.00,,,0.00,weatherlink.com 1.10,2013-03-16 02:28:00,
2013-03-15 20:43:00,40.3,27.0,30.01,ENE,59,0.0,0.0,60,0.00,,,0.00,weatherlink.com 1.10,2013-03-16 02:43:00,
2013-03-15 20:58:00,38.9,27.0,30.01,East,80,0.0,0.0,63,0.00,,,0.00,weatherlink.com 1.10,2013-03-16 02:58:00,
2013-03-15 21:13:00,38.5,27.0,30.01,ENE,72,0.0,0.0,64,0.00,,,0.00,weatherlink.com 1.10,2013-03-16 03:13:00,
2013-03-15 21:28:00,38.0,27.0,30.01,ENE,78,1.0,1.0,65,0.00,,,0.00,weatherlink.com 1.10,2013-03-16 03:28:00,
2013-03-15 21:43:00,37.2,27.0,30.01,SE,131,0.0,1.0,67,0.00,,,0.00,weatherlink.com 1.10,2013-03-16 03:43:00,
2013-03-15 21:58:00,36.5,27.0,30.01,ESE,102,0.0,2.0,68,0.00,,,0.00,weatherlink.com 1.10,2013-03-16 03:58:00,
2013-03-15 22:28:00,35.5,27.0,30.01,SW,233,0.0,0.0,70,0.00,,,0.00,weatherlink.com 1.10,2013-03-16 04:28:00,
2013-03-15 22:43:00,35.6,27.0,30.02,ENE,75,0.0,1.0,70,0.00,,,0.00,weatherlink.com 1.10,2013-03-16 04:43:00,
2013-03-15 22:58:00,34.7,27.0,30.02,SW,233,0.0,1.0,72,0.00,,,0.00,weatherlink.com 1.10,2013-03-16 04:58:00,
2013-03-15 23:13:00,34.1,27.0,30.02,SW,233,0.0,0.0,74,0.00,,,0.00,weatherlink.com 1.10,2013-03-16 05:13:00,
2013-03-15 23:28:00,33.8,27.0,30.02,East,92,1.0,1.0,75,0.00,,,0.00,weatherlink.com 1.10,2013-03-16 05:28:00,
2013-03-15 23:43:00,33.2,26.0,30.02,East,91,0.0,0.0,75,0.00,,,0.00,weatherlink.com 1.10,2013-03-16 05:43:00,
2013-03-15 23:58:00,32.7,26.0,30.02,East,92,0.0,0.0,76,0.00,,,0.00,weatherlink.com 1.10,2013-03-16 05:58:00,